Time;durP1;ratioP1;P1;durP2;ratioP2;P2;SDS_P1;SDS_P2;PMS_P1;PMS_P2;Temp;Humidity;BMP_temperature;BMP_pressure;BME280_temperature;BME280_humidity;BME280_pressure;Samples;Min_cycle;Max_cycle;Signal;HPM_P1;HPM_P2
2022/01/01 00:01:24;;;;;;;11.43;7.53;;;;;;;9.86;100.00;100982.13;5003869;28;20218;-75
2022/01/01 00:03:51;;;;;;;15.47;8.00;;;;;;;9.86;100.00;100980.34;5003892;28;20677;-76
2022/01/01 00:06:17;;;;;;;10.67;7.77;;;;;;;9.83;100.00;100976.94;5004024;28;20200;-75
2022/01/01 00:08:44;;;;;;;9.67;7.67;;;;;;;9.82;100.00;100972.66;5002086;28;20210;-75
2022/01/01 00:11:13;;;;;;;11.60;7.93;;;;;;;9.81;100.00;100990.00;5005430;28;20228;-75
2022/01/01 00:13:40;;;;;;;9.97;7.70;;;;;;;9.82;100.00;100988.28;4997362;28;20201;-75
2022/01/01 00:16:09;;;;;;;11.70;8.07;;;;;;;9.82;100.00;100989.13;5004278;28;20221;-75
2022/01/01 00:18:36;;;;;;;10.80;7.77;;;;;;;9.83;100.00;100990.84;5004945;28;20225;-75
2022/01/01 00:21:03;;;;;;;11.10;7.87;;;;;;;9.83;100.00;100993.47;5005332;28;20198;-74
2022/01/01 00:23:29;;;;;;;10.27;7.30;;;;;;;9.82;100.00;100988.28;5001418;28;20215;-76
2022/01/01 00:25:56;;;;;;;10.30;7.63;;;;;;;9.82;100.00;100985.66;5001863;28;20699;-76
2022/01/01 00:28:23;;;;;;;11.83;8.37;;;;;;;9.81;100.00;100987.38;4993865;28;20201;-75
2022/01/01 00:30:50;;;;;;;13.50;9.70;;;;;;;9.82;100.00;100998.69;5006032;28;20590;-75
2022/01/01 00:33:16;;;;;;;12.17;9.30;;;;;;;9.82;100.00;100993.47;5002821;28;20223;-74
2022/01/01 00:35:43;;;;;;;11.83;9.30;;;;;;;9.81;100.00;100992.59;5005987;28;20201;-75
2022/01/01 00:38:09;;;;;;;10.03;7.63;;;;;;;9.80;100.00;101000.47;4998210;28;20227;-75
2022/01/01 00:40:36;;;;;;;10.73;7.30;;;;;;;9.82;100.00;101001.28;5002126;28;20672;-76
2022/01/01 00:43:03;;;;;;;11.77;8.10;;;;;;;9.83;100.00;101003.00;4997151;28;20231;-74
2022/01/01 00:45:30;;;;;;;12.43;8.33;;;;;;;9.86;100.00;101000.34;5006994;28;20683;-76
2022/01/01 00:47:57;;;;;;;11.40;8.60;;;;;;;9.84;100.00;101008.19;4995978;28;20215;-76
2022/01/01 00:50:23;;;;;;;13.77;8.33;;;;;;;9.89;100.00;101015.06;5000753;28;20212;-75
2022/01/01 00:52:52;;;;;;;12.90;8.50;;;;;;;9.91;100.00;101014.16;5006550;28;20240;-74
2022/01/01 00:55:19;;;;;;;11.10;8.07;;;;;;;9.89;100.00;101023.75;5006293;28;20205;-75
2022/01/01 00:57:46;;;;;;;10.93;8.33;;;;;;;9.91;100.00;101024.56;5003446;28;20217;-75
2022/01/01 01:00:13;;;;;;;11.70;7.67;;;;;;;9.92;100.00;101026.31;5001825;28;20206;-74
2022/01/01 01:02:41;;;;;;;10.13;7.73;;;;;;;9.91;100.00;101024.56;5009042;28;20227;-76
2022/01/01 01:05:08;;;;;;;12.00;7.73;;;;;;;9.91;100.00;101040.19;4999087;28;20234;-75
2022/01/01 01:07:35;;;;;;;13.10;8.90;;;;;;;9.89;100.00;101044.56;5006355;28;20199;-74
2022/01/01 01:10:01;;;;;;;12.73;9.30;;;;;;;9.92;100.00;101049.75;5002541;28;20211;-77
2022/01/01 01:12:37;;;;;;;11.07;9.10;;;;;;;9.91;100.00;101055.81;5002633;28;20305;-75
2022/01/01 01:15:05;;;;;;;12.13;8.83;;;;;;;9.90;100.00;101055.84;5001080;28;20210;-75
2022/01/01 01:17:31;;;;;;;16.97;9.70;;;;;;;9.89;100.00;101052.38;5003349;28;20213;-75
2022/01/01 01:19:59;;;;;;;15.87;10.13;;;;;;;9.91;100.00;101062.78;5001994;28;20217;-75
2022/01/01 01:22:26;;;;;;;16.03;10.37;;;;;;;9.90;100.00;101059.31;4998951;28;20273;-74
2022/01/01 01:24:53;;;;;;;18.80;12.23;;;;;;;9.92;100.00;101064.50;4999331;28;20585;-76
2022/01/01 01:27:20;;;;;;;16.67;11.67;;;;;;;9.92;100.00;101057.56;5005369;28;20194;-74
2022/01/01 01:29:46;;;;;;;12.27;8.77;;;;;;;9.89;100.00;101055.00;4994712;28;20211;-75
2022/01/01 01:32:13;;;;;;;18.07;10.73;;;;;;;9.90;100.00;101046.28;5000633;28;20293;-75
2022/01/01 01:34:39;;;;;;;13.03;9.07;;;;;;;9.89;100.00;101062.81;5004246;28;20216;-76
2022/01/01 01:37:07;;;;;;;14.67;9.43;;;;;;;9.91;100.00;101068.00;5000146;28;20202;-74
2022/01/01 01:39:33;;;;;;;16.20;9.00;;;;;;;9.89;100.00;101070.63;5001910;28;20214;-75
2022/01/01 01:42:00;;;;;;;12.47;8.60;;;;;;;9.88;100.00;101073.25;4999293;28;20223;-75
2022/01/01 01:44:29;;;;;;;13.93;9.20;;;;;;;9.86;100.00;101074.13;4999812;28;20199;-75
2022/01/01 01:46:56;;;;;;;14.47;9.30;;;;;;;9.85;100.00;101077.63;5002475;28;20210;-74
2022/01/01 01:49:23;;;;;;;16.17;11.33;;;;;;;9.88;100.00;101075.84;5003259;28;20235;-74
2022/01/01 01:51:50;;;;;;;15.33;11.03;;;;;;;9.87;100.00;101077.59;5004143;28;20244;-74
2022/01/01 01:54:18;;;;;;;18.83;11.93;;;;;;;9.89;100.00;101073.22;5007453;28;20200;-75
2022/01/01 01:56:45;;;;;;;20.83;11.40;;;;;;;9.90;100.00;101080.13;5003716;28;20212;-75
2022/01/01 01:59:13;;;;;;;17.33;12.13;;;;;;;9.91;100.00;101086.22;4982800;28;20706;-74
2022/01/01 02:01:39;;;;;;;18.47;11.50;;;;;;;9.89;100.00;101083.66;5000368;28;20222;-75
2022/01/01 02:04:06;;;;;;;21.10;12.47;;;;;;;9.89;100.00;101083.66;5010490;28;20197;-77
2022/01/01 02:06:33;;;;;;;17.70;10.57;;;;;;;9.86;100.00;101081.09;5001365;28;20217;-76
2022/01/01 02:09:00;;;;;;;18.63;12.10;;;;;;;9.91;100.00;101073.22;5006306;28;20203;-75
2022/01/01 02:11:28;;;;;;;17.87;11.73;;;;;;;9.89;100.00;101088.00;5002050;28;20230;-75
2022/01/01 02:14:15;;;;;;;20.23;12.57;;;;;;;9.88;100.00;101087.13;5004925;28;20199;-77
2022/01/01 02:19:44;;;;;;;17.57;11.50;;;;;;;9.88;100.00;101094.09;4972085;28;20260;-75
2022/01/01 02:22:12;;;;;;;17.57;10.77;;;;;;;9.87;100.00;101103.66;5001542;28;20218;-75
2022/01/01 02:24:38;;;;;;;18.80;11.03;;;;;;;9.89;100.00;101095.81;5006070;28;20213;-74
2022/01/01 02:27:05;;;;;;;17.50;11.37;;;;;;;9.90;100.00;101100.13;5002053;28;20209;-75
2022/01/01 02:29:31;;;;;;;18.13;11.80;;;;;;;9.91;100.00;101097.50;5000663;28;20205;-74
2022/01/01 02:31:59;;;;;;;21.10;11.40;;;;;;;9.90;100.00;101106.19;5000121;28;20230;-76
2022/01/01 02:34:25;;;;;;;20.97;10.63;;;;;;;9.90;100.00;101108.78;4998929;28;20208;-75
2022/01/01 02:36:52;;;;;;;18.37;11.67;;;;;;;9.96;100.00;101107.84;5000391;28;20218;-76
2022/01/01 02:39:22;;;;;;;17.17;10.70;;;;;;;9.96;100.00;101103.50;5006099;28;20208;-75
2022/01/01 02:41:51;;;;;;;18.20;11.27;;;;;;;9.95;100.00;101111.34;5000864;28;20286;-74
2022/01/01 02:44:18;;;;;;;18.50;11.50;;;;;;;9.93;100.00;101111.34;5010384;28;20206;-74
2022/01/01 02:46:44;;;;;;;18.03;12.67;;;;;;;9.95;100.00;101111.34;4999465;28;20243;-74
2022/01/01 02:49:11;;;;;;;26.50;13.27;;;;;;;9.98;100.00;101122.56;5010411;28;20374;-74
2022/01/01 02:51:37;;;;;;;22.50;13.10;;;;;;;9.99;100.00;101121.69;5003131;28;20239;-75
2022/01/01 02:54:03;;;;;;;21.33;13.27;;;;;;;9.97;100.00;101130.41;5001190;28;20194;-75
2022/01/01 02:56:31;;;;;;;23.00;13.50;;;;;;;10.00;100.00;101133.81;5000999;28;20212;-74
2022/01/01 02:58:58;;;;;;;22.10;14.07;;;;;;;10.02;100.00;101124.22;4999735;28;20218;-75
2022/01/01 03:01:24;;;;;;;22.63;15.00;;;;;;;10.03;100.00;101131.16;5002826;28;20228;-74
2022/01/01 03:03:51;;;;;;;21.77;13.73;;;;;;;10.08;100.00;101127.63;5000509;28;20202;-75
2022/01/01 03:06:19;;;;;;;20.83;13.27;;;;;;;10.13;100.00;101133.63;4999116;28;20206;-75
2022/01/01 03:08:48;;;;;;;20.77;13.33;;;;;;;10.13;100.00;101133.63;5003198;28;20346;-74
2022/01/01 03:11:15;;;;;;;24.03;14.00;;;;;;;10.16;100.00;101136.19;5001786;28;20721;-74
2022/01/01 03:13:43;;;;;;;21.50;13.30;;;;;;;10.18;100.00;101134.41;5004272;28;20367;-74
2022/01/01 03:16:10;;;;;;;21.97;13.63;;;;;;;10.25;100.00;101143.84;4999234;28;20701;-74
2022/01/01 03:18:36;;;;;;;21.40;13.23;;;;;;;10.28;100.00;101148.16;5003504;28;20681;-74
2022/01/01 03:21:03;;;;;;;21.30;13.00;;;;;;;10.26;100.00;101150.78;5002926;28;20213;-77
2022/01/01 03:23:29;;;;;;;18.23;12.70;;;;;;;10.27;100.00;101141.22;5001092;28;20207;-75
2022/01/01 03:25:56;;;;;;;18.47;11.17;;;;;;;10.29;100.00;101147.25;5003315;28;20469;-75
2022/01/01 03:28:22;;;;;;;19.33;12.03;;;;;;;10.32;100.00;101147.25;5001759;28;20579;-75
2022/01/01 03:30:50;;;;;;;18.83;11.83;;;;;;;10.31;100.00;101150.72;5002357;28;20827;-75
2022/01/01 03:33:16;;;;;;;19.33;11.47;;;;;;;10.29;100.00;101144.66;4999769;28;20209;-74
2022/01/01 03:35:43;;;;;;;16.83;10.93;;;;;;;10.28;100.00;101146.41;5003242;28;20221;-74
2022/01/01 03:38:09;;;;;;;18.77;11.30;;;;;;;10.30;100.00;101144.63;4999776;28;20211;-75
2022/01/01 03:40:35;;;;;;;16.63;11.03;;;;;;;10.32;100.00;101147.25;5003729;28;20210;-74
2022/01/01 03:43:02;;;;;;;15.60;10.67;;;;;;;10.30;100.00;101143.78;4999009;28;20231;-76
2022/01/01 03:45:28;;;;;;;17.17;11.70;;;;;;;10.29;100.00;101152.47;5002749;28;20214;-74
2022/01/01 03:47:56;;;;;;;20.00;10.97;;;;;;;10.26;100.00;101142.97;4996013;28;20208;-74
2022/01/01 03:50:23;;;;;;;19.77;11.70;;;;;;;10.25;100.00;101151.66;5006162;28;20222;-74
2022/01/01 03:52:49;;;;;;;17.37;11.07;;;;;;;10.29;100.00;101147.25;5003332;28;20236;-74
2022/01/01 03:55:16;;;;;;;16.13;10.80;;;;;;;10.27;100.00;101151.63;5008591;28;20199;-74
2022/01/01 03:57:43;;;;;;;15.50;10.60;;;;;;;10.19;100.00;101157.84;4999447;28;20215;-75
2022/01/01 04:00:12;;;;;;;18.30;10.23;;;;;;;10.20;100.00;101158.69;5003657;28;20576;-75
2022/01/01 04:02:41;;;;;;;17.37;10.60;;;;;;;10.18;100.00;101173.50;5003714;28;20228;-75
2022/01/01 04:05:10;;;;;;;14.90;9.87;;;;;;;10.27;100.00;101175.09;5003075;28;20198;-74
2022/01/01 04:07:36;;;;;;;15.93;10.20;;;;;;;10.27;100.00;101182.91;5002092;28;20216;-75
2022/01/01 04:10:03;;;;;;;15.47;9.93;;;;;;;10.26;100.00;101186.41;5003084;28;20208;-74
2022/01/01 04:12:30;;;;;;;16.83;10.03;;;;;;;10.28;100.00;101179.44;5002071;28;20227;-74
2022/01/01 04:14:57;;;;;;;15.83;10.03;;;;;;;10.28;100.00;101182.03;5002262;28;20683;-76
2022/01/01 04:17:23;;;;;;;15.50;10.40;;;;;;;10.28;100.00;101182.03;5000807;28;20217;-75
2022/01/01 04:19:50;;;;;;;14.70;9.50;;;;;;;10.27;100.00;101185.53;5003393;28;20220;-74
2022/01/01 04:22:17;;;;;;;17.17;10.03;;;;;;;10.25;100.00;101185.53;5006855;28;20229;-74
2022/01/01 04:24:44;;;;;;;16.10;9.57;;;;;;;10.23;100.00;101195.13;5002864;28;20210;-74
2022/01/01 04:27:10;;;;;;;18.13;10.00;;;;;;;10.25;100.00;101198.56;5006843;28;20202;-74
2022/01/01 04:29:38;;;;;;;14.70;9.90;;;;;;;10.26;100.00;101194.25;5002908;28;20210;-74
2022/01/01 04:32:05;;;;;;;16.37;9.50;;;;;;;10.23;100.00;101193.38;5011649;28;20849;-75
2022/01/01 04:34:31;;;;;;;16.17;10.23;;;;;;;10.24;100.00;101197.72;5005587;28;20207;-75
2022/01/01 04:37:01;;;;;;;16.60;10.13;;;;;;;10.27;100.00;101195.94;5001539;28;20199;-74
2022/01/01 04:39:29;;;;;;;14.20;10.20;;;;;;;10.27;100.00;101203.75;5002624;28;20946;-76
2022/01/01 04:41:56;;;;;;;15.53;9.77;;;;;;;10.26;100.00;101196.84;5000195;28;20228;-74
2022/01/01 04:44:23;;;;;;;15.80;10.17;;;;;;;10.27;100.00;101202.00;5000781;28;20219;-74
2022/01/01 04:46:49;;;;;;;16.63;10.13;;;;;;;10.31;100.00;101202.84;5001648;28;20207;-75
2022/01/01 04:49:15;;;;;;;13.33;9.07;;;;;;;10.30;100.00;101204.56;5002421;28;20274;-75
2022/01/01 04:51:42;;;;;;;13.93;9.83;;;;;;;10.34;100.00;101211.50;5006272;28;20245;-74
2022/01/01 04:54:15;;;;;;;16.13;10.13;;;;;;;10.35;100.00;101212.38;5002940;28;20214;-77
2022/01/01 04:56:44;;;;;;;16.20;10.33;;;;;;;10.35;100.00;101214.97;5005551;28;20207;-74
2022/01/01 04:59:11;;;;;;;15.37;9.73;;;;;;;10.36;100.00;101214.06;5004152;28;20228;-74
2022/01/01 05:01:37;;;;;;;13.97;8.50;;;;;;;10.39;100.00;101216.63;5003761;28;20734;-75
2022/01/01 05:04:04;;;;;;;15.33;9.97;;;;;;;10.38;100.00;101221.00;4996840;28;20213;-74
2022/01/01 05:06:31;;;;;;;13.87;9.43;;;;;;;10.36;100.00;101228.00;5005809;28;20719;-77
2022/01/01 05:08:57;;;;;;;15.40;9.50;;;;;;;10.38;100.00;101226.22;5003703;28;20218;-74
2022/01/01 05:11:24;;;;;;;14.40;9.33;;;;;;;10.35;100.00;101222.78;5005858;28;20229;-75
2022/01/01 05:13:51;;;;;;;13.83;8.47;;;;;;;10.34;100.00;101218.44;5001389;28;20223;-74
2022/01/01 05:16:19;;;;;;;12.97;8.63;;;;;;;10.33;100.00;101228.03;5004421;28;20309;-74
2022/01/01 05:18:45;;;;;;;14.43;9.27;;;;;;;10.34;100.00;101231.47;5007088;28;20292;-75
2022/01/01 05:21:12;;;;;;;14.83;9.07;;;;;;;10.38;100.00;101236.63;5001085;28;20225;-76
2022/01/01 05:23:39;;;;;;;14.20;8.53;;;;;;;10.38;100.00;101218.38;5006781;28;20669;-74
2022/01/01 05:26:05;;;;;;;15.07;8.70;;;;;;;10.39;100.00;101227.91;5008709;28;20208;-74
2022/01/01 05:28:32;;;;;;;14.17;8.63;;;;;;;10.38;100.00;101218.38;4999505;28;20222;-74
2022/01/01 05:31:00;;;;;;;13.03;7.77;;;;;;;10.37;100.00;101213.19;5000284;28;20651;-75
2022/01/01 05:33:26;;;;;;;15.23;7.93;;;;;;;10.35;100.00;101215.81;4994882;28;20578;-74
2022/01/01 05:35:52;;;;;;;14.63;9.07;;;;;;;10.32;100.00;101215.88;5004295;28;20820;-74
2022/01/01 05:38:19;;;;;;;12.80;8.50;;;;;;;10.34;100.00;101215.84;5003803;28;20203;-76
2022/01/01 05:40:45;;;;;;;12.27;7.87;;;;;;;10.35;100.00;101220.19;5001836;28;20224;-76
2022/01/01 05:43:13;;;;;;;13.23;7.77;;;;;;;10.36;100.00;101235.81;4997414;28;20223;-75
2022/01/01 05:45:41;;;;;;;13.33;8.00;;;;;;;10.39;100.00;101221.84;5003585;28;20211;-75
2022/01/01 05:48:09;;;;;;;12.27;7.83;;;;;;;10.39;100.00;101227.91;4996570;28;20681;-75
2022/01/01 05:50:35;;;;;;;11.43;7.43;;;;;;;10.37;100.00;101236.66;4998695;28;20201;-74
2022/01/01 05:53:01;;;;;;;13.27;8.40;;;;;;;10.39;100.00;101234.88;5004420;28;20239;-74
2022/01/01 05:55:28;;;;;;;13.47;7.97;;;;;;;10.40;100.00;101232.25;4999922;28;20586;-75
2022/01/01 05:57:54;;;;;;;10.40;7.17;;;;;;;10.39;100.00;101237.50;5013232;28;20669;-74
2022/01/01 06:00:21;;;;;;;12.40;7.87;;;;;;;10.34;100.00;101248.00;5001593;28;20222;-77
2022/01/01 06:02:47;;;;;;;15.70;8.17;;;;;;;10.36;100.00;101248.84;5003224;28;20228;-74
2022/01/01 06:05:15;;;;;;;11.67;7.70;;;;;;;10.37;100.00;101247.09;5001092;28;20221;-74
2022/01/01 06:07:41;;;;;;;11.03;7.57;;;;;;;10.38;100.00;101252.28;5003105;28;20573;-74
2022/01/01 06:10:08;;;;;;;14.53;7.70;;;;;;;10.42;100.00;101245.28;4996558;28;20202;-75
2022/01/01 06:12:38;;;;;;;11.47;7.60;;;;;;;10.37;100.00;101253.16;5003762;28;20234;-75
2022/01/01 06:15:05;;;;;;;11.77;7.30;;;;;;;10.34;100.00;101254.94;5003627;28;20199;-74
2022/01/01 06:17:32;;;;;;;11.77;7.80;;;;;;;10.38;100.00;101251.44;5006869;28;20203;-75
2022/01/01 06:19:58;;;;;;;12.23;7.33;;;;;;;10.34;100.00;101263.66;4983214;28;20715;-74
2022/01/01 06:22:26;;;;;;;10.67;7.90;;;;;;;10.30;100.00;101258.47;5006055;28;20227;-74
2022/01/01 06:24:52;;;;;;;14.03;7.80;;;;;;;10.32;100.00;101269.75;4997083;28;20577;-75
2022/01/01 06:27:18;;;;;;;11.93;7.37;;;;;;;10.33;100.00;101268.88;4986870;28;20217;-75
2022/01/01 06:29:45;;;;;;;12.53;7.67;;;;;;;10.31;100.00;101276.72;4995517;28;20203;-76
2022/01/01 06:32:12;;;;;;;14.43;7.73;;;;;;;10.33;100.00;101271.47;5001386;28;20227;-74
2022/01/01 06:34:39;;;;;;;12.13;6.97;;;;;;;10.32;100.00;101282.78;5005552;28;20254;-76
2022/01/01 06:37:05;;;;;;;13.07;8.07;;;;;;;10.32;100.00;101283.63;5002065;28;20213;-75
2022/01/01 06:39:33;;;;;;;14.00;7.70;;;;;;;10.36;100.00;101287.94;4996320;28;20230;-74
2022/01/01 06:41:59;;;;;;;10.97;6.67;;;;;;;10.33;100.00;101289.72;5005323;28;20231;-74
2022/01/01 06:44:26;;;;;;;11.03;7.30;;;;;;;10.35;100.00;101294.03;4999817;28;20683;-74
2022/01/01 06:46:53;;;;;;;12.70;7.73;;;;;;;10.32;100.00;101291.44;4999284;28;20213;-74
2022/01/01 06:49:19;;;;;;;12.50;7.00;;;;;;;10.33;100.00;101293.19;5005247;28;20724;-75
2022/01/01 06:51:46;;;;;;;12.23;6.90;;;;;;;10.33;100.00;101298.41;5000336;28;20233;-75
2022/01/01 06:54:13;;;;;;;11.70;7.63;;;;;;;10.34;100.00;101305.34;5004809;28;20205;-74
2022/01/01 06:56:41;;;;;;;11.43;7.10;;;;;;;10.33;100.00;101300.16;5002367;28;20205;-74
2022/01/01 06:59:08;;;;;;;12.17;7.30;;;;;;;10.32;100.00;101311.44;5004709;28;20566;-75
2022/01/01 07:01:35;;;;;;;10.73;6.90;;;;;;;10.31;100.00;101314.94;4998053;28;20230;-74
2022/01/01 07:04:01;;;;;;;12.43;7.40;;;;;;;10.33;100.00;101308.81;4997387;28;20600;-75
2022/01/01 07:06:27;;;;;;;11.40;7.33;;;;;;;10.36;100.00;101310.50;4995141;28;20222;-75
2022/01/01 07:08:54;;;;;;;10.50;7.20;;;;;;;10.35;100.00;101312.28;5001199;28;20211;-75
2022/01/01 07:11:20;;;;;;;10.10;6.90;;;;;;;10.33;100.00;101314.03;5001774;28;20231;-74
2022/01/01 07:13:48;;;;;;;11.40;6.97;;;;;;;10.31;100.00;101327.97;4999761;28;20225;-74
2022/01/01 07:16:14;;;;;;;11.13;7.30;;;;;;;10.28;100.00;101323.63;4999415;28;20576;-75
2022/01/01 07:18:41;;;;;;;11.33;7.40;;;;;;;10.24;100.00;101321.97;5003353;28;20253;-75
2022/01/01 07:21:07;;;;;;;13.53;7.70;;;;;;;10.25;100.00;101328.88;5002355;28;20246;-74
2022/01/01 07:23:34;;;;;;;10.90;7.23;;;;;;;10.22;100.00;101328.94;5000128;28;20210;-77
2022/01/01 07:26:00;;;;;;;10.43;7.57;;;;;;;10.19;100.00;101331.59;4994103;28;20211;-74
2022/01/01 07:28:27;;;;;;;11.80;8.03;;;;;;;10.17;100.00;101341.16;5003946;28;20776;-74
2022/01/01 07:30:54;;;;;;;12.93;7.77;;;;;;;10.19;100.00;101342.00;5004456;28;20201;-74
2022/01/01 07:33:21;;;;;;;14.00;8.50;;;;;;;10.20;100.00;101344.59;5006650;28;20600;-75
2022/01/01 07:35:47;;;;;;;16.47;8.43;;;;;;;10.19;100.00;101344.63;5007241;28;20685;-74
2022/01/01 07:38:14;;;;;;;12.80;7.63;;;;;;;10.20;100.00;101346.31;5005443;28;20210;-75
2022/01/01 07:40:40;;;;;;;11.67;7.70;;;;;;;10.17;100.00;101343.78;5003559;28;20309;-74
2022/01/01 07:43:10;;;;;;;10.30;7.40;;;;;;;10.17;100.00;101342.03;5001121;28;20217;-76
2022/01/01 07:45:37;;;;;;;10.60;8.00;;;;;;;10.20;100.00;101339.38;4995623;28;20620;-75
2022/01/01 07:48:05;;;;;;;9.60;7.13;;;;;;;10.21;100.00;101342.84;5004985;28;20217;-74
2022/01/01 07:50:32;;;;;;;13.53;8.03;;;;;;;10.18;100.00;101348.97;5008633;28;20615;-74
2022/01/01 07:52:58;;;;;;;8.43;7.07;;;;;;;10.21;100.00;101345.44;5005723;28;20324;-74
2022/01/01 07:55:24;;;;;;;10.97;7.63;;;;;;;10.19;100.00;101347.22;5005989;28;20354;-75
2022/01/01 07:57:51;;;;;;;10.87;8.00;;;;;;;10.20;100.00;101346.31;5002054;28;20205;-76
2022/01/01 08:00:18;;;;;;;11.03;7.07;;;;;;;10.19;100.00;101353.28;5003137;28;20221;-74
2022/01/01 08:02:46;;;;;;;11.03;7.63;;;;;;;10.20;100.00;101355.03;4999132;28;20234;-75
2022/01/01 08:05:16;;;;;;;11.57;8.23;;;;;;;10.18;100.00;101362.00;5006851;28;21008;-74
2022/01/01 08:07:43;;;;;;;13.20;7.77;;;;;;;10.22;100.00;101368.88;4999075;28;20217;-74
2022/01/01 08:10:10;;;;;;;10.77;7.57;;;;;;;10.26;100.00;101361.03;5002555;28;20203;-74
2022/01/01 08:12:36;;;;;;;11.30;7.87;;;;;;;10.28;100.00;101370.56;5004740;28;20253;-74
2022/01/01 08:15:03;;;;;;;13.47;7.77;;;;;;;10.30;100.00;101371.38;5006341;28;20207;-75
2022/01/01 08:17:29;;;;;;;13.43;6.93;;;;;;;10.32;100.00;101377.47;4999815;28;20216;-74
2022/01/01 08:19:57;;;;;;;14.33;9.97;;;;;;;10.32;100.00;101384.44;5005457;28;20225;-75
2022/01/01 08:22:25;;;;;;;26.70;13.70;;;;;;;10.33;100.00;101381.81;4998236;28;20230;-74
2022/01/01 08:24:52;;;;;;;15.17;7.57;;;;;;;10.35;100.00;101381.78;5003804;28;20210;-74
2022/01/01 08:27:18;;;;;;;14.13;8.60;;;;;;;10.38;100.00;101387.81;5004105;28;20210;-75
2022/01/01 08:29:44;;;;;;;10.63;7.43;;;;;;;10.37;100.00;101387.84;5005204;28;20207;-75
2022/01/01 08:32:11;;;;;;;9.63;7.40;;;;;;;10.37;100.00;101387.84;5006119;28;20235;-76
2022/01/01 08:34:38;;;;;;;12.33;7.57;;;;;;;10.40;100.00;101388.66;5003755;28;20211;-74
2022/01/01 08:37:05;;;;;;;9.23;7.10;;;;;;;10.45;100.00;101391.22;5012124;28;20222;-74
2022/01/01 08:39:33;;;;;;;9.73;6.67;;;;;;;10.44;100.00;101394.69;5005047;28;20571;-75
2022/01/01 08:42:00;;;;;;;12.57;7.17;;;;;;;10.49;100.00;101392.03;5001189;28;20228;-74
2022/01/01 08:44:26;;;;;;;11.97;7.07;;;;;;;10.53;100.00;101386.75;5002142;28;20207;-75
2022/01/01 08:46:53;;;;;;;10.93;7.60;;;;;;;10.58;100.00;101391.91;5001070;28;20273;-76
2022/01/01 08:49:19;;;;;;;8.87;6.60;;;;;;;10.66;100.00;101403.09;5004218;28;20207;-77
2022/01/01 08:51:45;;;;;;;11.33;7.27;;;;;;;10.71;100.00;101389.97;5007579;28;20380;-74
2022/01/01 08:54:14;;;;;;;9.13;6.67;;;;;;;10.74;100.00;101401.22;5002374;28;20204;-76
2022/01/01 08:56:44;;;;;;;9.70;6.50;;;;;;;10.77;100.00;101397.72;5000812;28;20825;-75
2022/01/01 08:59:10;;;;;;;12.10;6.10;;;;;;;10.78;100.00;101407.25;5002254;28;20211;-74
2022/01/01 09:01:37;;;;;;;9.93;6.20;;;;;;;10.82;100.00;101408.06;5004869;28;20614;-74
2022/01/01 09:04:03;;;;;;;11.67;7.00;;;;;;;10.83;100.00;101407.22;4999145;28;20211;-75
2022/01/01 09:06:30;;;;;;;10.37;6.70;;;;;;;10.86;100.00;101409.78;5005548;28;20459;-76
2022/01/01 09:08:56;;;;;;;12.47;6.80;;;;;;;10.84;100.00;101417.63;4998917;28;20214;-75
2022/01/01 09:11:23;;;;;;;11.93;6.67;;;;;;;10.88;100.00;101418.44;5006925;28;20298;-75
2022/01/01 09:13:51;;;;;;;10.40;6.43;;;;;;;10.90;100.00;101422.72;5002131;28;20219;-75
2022/01/01 09:16:18;;;;;;;12.43;7.13;;;;;;;10.93;100.00;101432.28;5005965;28;20210;-75
2022/01/01 09:18:47;;;;;;;15.90;10.13;;;;;;;10.96;100.00;101432.25;5001825;28;20211;-74
2022/01/01 09:21:14;;;;;;;11.57;7.00;;;;;;;10.96;100.00;101440.94;5004187;28;20601;-77
2022/01/01 09:23:40;;;;;;;10.83;6.90;;;;;;;10.96;100.00;101442.69;4997793;28;20219;-74
2022/01/01 09:26:07;;;;;;;10.60;6.60;;;;;;;10.98;100.00;101441.75;5004887;28;20539;-74
2022/01/01 09:28:34;;;;;;;10.13;6.57;;;;;;;11.01;100.00;101440.88;5005546;28;20201;-77
2022/01/01 09:31:03;;;;;;;10.30;6.97;;;;;;;11.03;100.00;101451.25;4997850;28;20574;-75
2022/01/01 09:33:31;;;;;;;12.73;7.23;;;;;;;11.04;100.00;101455.59;5000715;28;20208;-76
2022/01/01 09:35:58;;;;;;;11.83;6.40;;;;;;;11.08;100.00;101459.88;5007118;28;20271;-74
2022/01/01 09:38:24;;;;;;;9.20;6.50;;;;;;;11.05;100.00;101460.81;5000802;28;20661;-75
2022/01/01 09:40:53;;;;;;;12.00;6.73;;;;;;;11.07;100.00;101466.00;5000985;28;20228;-76
2022/01/01 09:43:22;;;;;;;10.10;7.27;;;;;;;11.09;100.00;101465.09;5003980;28;20196;-75
2022/01/01 09:45:50;;;;;;;9.30;6.33;;;;;;;11.10;100.00;101461.59;5002906;28;20203;-74
2022/01/01 09:48:20;;;;;;;10.43;7.07;;;;;;;11.12;100.00;101467.66;5003606;28;20208;-75
2022/01/01 09:50:49;;;;;;;11.03;7.27;;;;;;;11.10;100.00;101464.22;5004367;28;20212;-75
2022/01/01 09:53:15;;;;;;;9.03;6.47;;;;;;;11.11;100.00;101468.53;5004188;28;20283;-77
2022/01/01 09:55:42;;;;;;;12.07;7.33;;;;;;;11.12;100.00;101479.84;5003117;28;20216;-75
2022/01/01 09:58:08;;;;;;;10.67;6.67;;;;;;;11.11;100.00;101478.97;5002987;28;20214;-75
2022/01/01 10:00:35;;;;;;;12.10;6.80;;;;;;;11.13;100.00;101492.88;4985565;28;20216;-75
2022/01/01 10:03:01;;;;;;;9.97;7.07;;;;;;;11.17;100.00;101494.56;5003755;28;20220;-75
2022/01/01 10:05:29;;;;;;;11.23;7.00;;;;;;;11.14;100.00;101499.81;4998634;28;20251;-76
2022/01/01 10:08:00;;;;;;;10.60;6.80;;;;;;;11.14;100.00;101505.03;4999490;28;20211;-74
2022/01/01 10:10:27;;;;;;;10.27;6.93;;;;;;;11.15;100.00;101508.50;5003678;28;20576;-74
2022/01/01 10:12:54;;;;;;;11.20;6.30;;;;;;;11.12;100.00;101506.81;5003547;28;20228;-75
2022/01/01 10:15:20;;;;;;;8.37;6.40;;;;;;;11.11;100.00;101512.91;5003977;28;20265;-76
2022/01/01 10:17:47;;;;;;;11.27;6.90;;;;;;;11.10;100.00;101513.78;5003396;28;20216;-76
2022/01/01 10:20:14;;;;;;;10.43;6.37;;;;;;;11.10;100.00;101510.31;4998965;28;20229;-76
2022/01/01 10:22:43;;;;;;;8.80;6.50;;;;;;;11.08;100.00;101507.75;5004565;28;20231;-76
2022/01/01 10:27:58;;;;;;;10.17;6.57;;;;;;;11.09;100.00;101516.44;4995894;28;21066;-74
2022/01/01 10:30:31;;;;;;;9.67;7.00;;;;;;;11.10;100.00;101515.53;5001193;28;20232;-75
2022/01/01 10:33:03;;;;;;;12.07;7.13;;;;;;;11.09;100.00;101517.28;5002737;28;21033;-75
2022/01/01 10:35:34;;;;;;;12.47;7.53;;;;;;;11.11;100.00;101510.28;5002659;28;20222;-75
2022/01/01 10:38:04;;;;;;;12.63;7.47;;;;;;;11.17;100.00;101514.59;5000027;28;20883;-74
2022/01/01 10:40:31;;;;;;;10.47;7.03;;;;;;;11.21;100.00;101518.84;4998189;28;20613;-75
2022/01/01 10:42:57;;;;;;;14.67;7.43;;;;;;;11.25;100.00;101515.31;5002297;28;20679;-75
2022/01/01 10:45:35;;;;;;;13.20;7.40;;;;;;;11.24;100.00;101523.16;5000932;28;20719;-75
2022/01/01 10:48:17;;;;;;;9.77;7.50;;;;;;;11.23;100.00;101521.44;5001512;28;20663;-75
2022/01/01 10:50:45;;;;;;;10.33;6.70;;;;;;;11.22;100.00;101522.31;4998210;28;20217;-76
2022/01/01 10:53:15;;;;;;;12.03;7.43;;;;;;;11.19;100.00;101520.63;5000676;28;20743;-76
2022/01/01 10:55:43;;;;;;;11.33;7.40;;;;;;;11.18;100.00;101518.91;5002607;28;20573;-76
2022/01/01 10:58:10;;;;;;;11.33;7.77;;;;;;;11.17;100.00;101515.44;5002094;28;20203;-76
2022/01/01 11:00:42;;;;;;;12.07;8.47;;;;;;;11.20;100.00;101514.50;5004917;28;20211;-75
2022/01/01 11:03:09;;;;;;;14.00;7.70;;;;;;;11.21;100.00;101504.94;5005428;28;20219;-75
2022/01/01 11:05:37;;;;;;;11.23;8.10;;;;;;;11.21;100.00;101510.19;5007117;28;20203;-77
2022/01/01 11:08:06;;;;;;;13.83;8.17;;;;;;;11.21;100.00;101507.56;5010249;28;20206;-76
2022/01/01 11:10:34;;;;;;;11.63;7.33;;;;;;;11.22;100.00;101514.50;5008634;28;20211;-76
2022/01/01 11:13:02;;;;;;;12.77;7.90;;;;;;;11.18;100.00;101519.75;5007904;28;20234;-77
2022/01/01 11:15:29;;;;;;;14.03;7.87;;;;;;;11.17;100.00;101514.59;5002201;28;20208;-76